Time;durP1;ratioP1;P1;durP2;ratioP2;P2;SDS_P1;SDS_P2;PMS_P1;PMS_P2;Temp;Humidity;BMP_temperature;BMP_pressure;BME280_temperature;BME280_humidity;BME280_pressure;Samples;Min_cycle;Max_cycle;Signal;HPM_P1;HPM_P2
2023/09/14 00:00:33;;;;;;;1.55;0.80;;;19.20;99.90;;;;;;2604165;47;20176;31
2023/09/14 00:03:11;;;;;;;2.88;1.05;;;19.20;99.90;;;;;;2585735;54;20027;31
2023/09/14 00:05:58;;;;;;;1.95;0.95;;;19.10;99.90;;;;;;2585613;54;20991;31
2023/09/14 00:08:38;;;;;;;1.85;1.00;;;19.10;99.90;;;;;;2585645;54;20054;31
2023/09/14 00:11:14;;;;;;;1.40;0.90;;;19.10;99.90;;;;;;2585489;54;20700;31
2023/09/14 00:13:54;;;;;;;1.60;1.00;;;19.10;99.90;;;;;;2585928;54;20045;31
2023/09/14 00:16:36;;;;;;;1.97;0.87;;;19.10;99.90;;;;;;2603879;47;20033;31
2023/09/14 00:19:13;;;;;;;2.50;1.20;;;19.10;99.90;;;;;;2605631;47;21019;31
2023/09/14 00:21:51;;;;;;;1.50;0.98;;;19.00;99.90;;;;;;2681686;39;21737;31
2023/09/14 00:24:31;;;;;;;2.17;1.20;;;19.10;99.90;;;;;;2584967;54;20986;31
2023/09/14 00:27:04;;;;;;;1.75;1.10;;;19.00;99.90;;;;;;2586074;54;20847;31
2023/09/14 00:29:40;;;;;;;1.65;1.25;;;19.00;99.90;;;;;;2586369;54;20030;31
2023/09/14 00:32:19;;;;;;;1.98;1.33;;;18.90;99.90;;;;;;2586591;54;20904;31
2023/09/14 00:34:56;;;;;;;1.80;1.15;;;18.90;99.90;;;;;;2586098;54;20030;31
2023/09/14 00:37:49;;;;;;;1.77;1.10;;;18.80;99.90;;;;;;2586612;54;20027;31
2023/09/14 00:40:27;;;;;;;2.00;1.40;;;18.80;99.90;;;;;;2586242;54;20037;31
2023/09/14 00:43:02;;;;;;;2.70;1.23;;;18.70;99.90;;;;;;2586189;54;21007;31
2023/09/14 00:45:41;;;;;;;1.40;1.10;;;18.70;99.90;;;;;;2585543;54;20031;31
2023/09/14 00:48:29;;;;;;;1.90;1.30;;;18.60;99.90;;;;;;2586620;54;20906;31
2023/09/14 00:51:07;;;;;;;1.75;1.35;;;18.60;99.90;;;;;;2586126;54;20943;31
2023/09/14 00:53:41;;;;;;;1.85;1.23;;;18.60;99.90;;;;;;2586238;54;20026;31
2023/09/14 00:56:19;;;;;;;1.75;1.25;;;18.50;99.90;;;;;;2586200;54;19946;31
2023/09/14 00:58:57;;;;;;;2.08;1.35;;;18.50;99.90;;;;;;2591151;46;20145;31
2023/09/14 01:01:33;;;;;;;2.17;1.48;;;18.40;99.90;;;;;;2585319;54;20026;31
2023/09/14 01:04:14;;;;;;;2.10;1.33;;;18.40;99.90;;;;;;2683275;39;21453;31
2023/09/14 01:06:53;;;;;;;2.17;1.52;;;18.40;99.90;;;;;;2585309;54;20787;31
2023/09/14 01:09:29;;;;;;;2.10;1.30;;;18.30;99.90;;;;;;2599605;46;21291;31
2023/09/14 01:12:10;;;;;;;1.88;1.15;;;18.30;99.90;;;;;;2585426;54;20559;31
2023/09/14 01:14:47;;;;;;;3.90;1.92;;;18.30;99.90;;;;;;2586311;54;20058;31
2023/09/14 01:17:26;;;;;;;2.17;1.53;;;18.20;99.90;;;;;;2586226;54;20029;31
2023/09/14 01:20:07;;;;;;;2.50;1.47;;;18.20;99.90;;;;;;2586147;54;21239;31
2023/09/14 01:22:52;;;;;;;2.50;1.50;;;18.20;99.90;;;;;;2604650;46;20108;31
2023/09/14 01:25:25;;;;;;;2.47;1.73;;;18.20;99.90;;;;;;2586314;54;20057;31
2023/09/14 01:28:13;;;;;;;2.55;1.25;;;18.10;99.90;;;;;;2684384;39;22273;31
2023/09/14 01:30:53;;;;;;;2.47;1.43;;;18.00;99.90;;;;;;2604551;46;20026;31
2023/09/14 01:33:31;;;;;;;2.00;1.40;;;18.00;99.90;;;;;;2586472;54;20026;31
2023/09/14 01:36:11;;;;;;;2.03;1.43;;;18.00;99.90;;;;;;2586182;54;21002;31
2023/09/14 01:38:45;;;;;;;2.28;1.40;;;18.00;99.90;;;;;;2773177;31;21616;31
2023/09/14 01:41:23;;;;;;;;;;;18.00;99.90;;;;;;2585418;54;20177;31
2023/09/14 01:44:02;;;;;;;;;;;17.90;99.90;;;;;;2755188;31;22242;31
2023/09/14 01:46:41;;;;;;;3.35;2.15;;;17.90;99.90;;;;;;2604545;46;19942;31
2023/09/14 01:49:16;;;;;;;2.20;1.50;;;17.90;99.90;;;;;;2586155;54;20026;31
2023/09/14 01:51:53;;;;;;;3.20;1.90;;;17.90;99.90;;;;;;2604783;46;20030;31
2023/09/14 01:54:36;;;;;;;3.15;1.95;;;17.90;99.90;;;;;;2683829;39;21540;31
2023/09/14 01:57:20;;;;;;;2.05;1.65;;;17.80;99.90;;;;;;2586024;54;20027;31
2023/09/14 01:59:58;;;;;;;2.00;1.30;;;17.80;99.90;;;;;;2604645;46;20027;31
2023/09/14 02:02:35;;;;;;;2.70;1.87;;;17.80;99.90;;;;;;2586290;54;20023;31
2023/09/14 02:05:12;;;;;;;2.70;1.73;;;17.80;99.90;;;;;;2586027;54;20101;31
2023/09/14 02:07:46;;;;;;;2.45;1.67;;;17.80;99.90;;;;;;2595771;46;20027;31
2023/09/14 02:10:22;;;;;;;3.75;1.80;;;17.80;99.90;;;;;;2586124;54;20875;31
2023/09/14 02:12:56;;;;;;;2.80;1.65;;;17.80;99.90;;;;;;2683054;39;20422;31
2023/09/14 02:15:39;;;;;;;2.50;1.80;;;17.70;99.90;;;;;;2586079;54;20602;31
2023/09/14 02:18:12;;;;;;;3.42;1.52;;;17.70;99.90;;;;;;2586221;54;21606;31
2023/09/14 02:20:48;;;;;;;2.50;1.55;;;17.80;99.90;;;;;;2586088;54;20117;31
2023/09/14 02:23:26;;;;;;;3.95;1.80;;;17.80;99.90;;;;;;2596454;46;20965;31
2023/09/14 02:26:02;;;;;;;2.57;1.60;;;17.80;99.90;;;;;;2586058;54;21392;31
2023/09/14 02:28:43;;;;;;;2.90;1.60;;;17.80;99.90;;;;;;2585908;54;20512;31
2023/09/14 02:31:23;;;;;;;2.30;1.40;;;17.80;99.90;;;;;;2586034;54;20031;31
2023/09/14 02:33:58;;;;;;;2.22;1.70;;;17.80;99.90;;;;;;2604470;46;20962;31
2023/09/14 02:36:34;;;;;;;2.80;1.60;;;17.90;99.90;;;;;;2585744;54;20032;31
2023/09/14 02:39:15;;;;;;;2.65;1.67;;;17.90;99.90;;;;;;2586109;54;20945;31
2023/09/14 02:41:56;;;;;;;3.58;1.98;;;17.90;99.90;;;;;;2585778;54;20033;31
2023/09/14 02:44:31;;;;;;;3.53;1.77;;;17.90;99.90;;;;;;2586178;54;20842;31
2023/09/14 02:47:10;;;;;;;2.55;1.65;;;17.80;99.90;;;;;;2585655;54;20042;31
2023/09/14 02:49:44;;;;;;;2.97;1.98;;;17.80;99.90;;;;;;2585929;54;20896;31
2023/09/14 02:52:18;;;;;;;2.15;1.60;;;17.70;99.90;;;;;;2599542;46;20908;31
2023/09/14 02:54:55;;;;;;;3.80;1.70;;;17.70;99.90;;;;;;2585729;54;20026;31
2023/09/14 02:57:32;;;;;;;3.00;1.90;;;17.70;99.90;;;;;;2585803;54;20089;31
2023/09/14 03:00:07;;;;;;;3.65;2.13;;;17.70;99.90;;;;;;2683698;39;21525;31
2023/09/14 03:02:44;;;;;;;2.77;2.00;;;17.70;99.90;;;;;;2604291;46;20841;31
2023/09/14 03:05:22;;;;;;;3.08;2.05;;;17.80;99.90;;;;;;2585716;54;21231;31
2023/09/14 03:07:59;;;;;;;3.20;2.30;;;17.80;99.90;;;;;;2586002;54;20026;31
2023/09/14 03:10:32;;;;;;;2.95;1.95;;;17.80;99.90;;;;;;2585826;54;20243;31
2023/09/14 03:13:09;;;;;;;3.10;2.10;;;17.80;99.90;;;;;;2585924;54;21224;31
2023/09/14 03:15:42;;;;;;;3.00;2.30;;;17.80;99.90;;;;;;2585753;54;20995;31
2023/09/14 03:18:22;;;;;;;2.93;2.00;;;17.80;99.90;;;;;;2585871;54;20034;31
2023/09/14 03:20:59;;;;;;;3.78;2.15;;;17.80;99.90;;;;;;2701586;39;21570;31
2023/09/14 03:23:36;;;;;;;3.42;2.08;;;17.80;99.90;;;;;;2586037;54;20022;31
2023/09/14 03:26:16;;;;;;;3.22;2.08;;;17.80;99.90;;;;;;2585950;54;20954;31
2023/09/14 03:28:51;;;;;;;4.53;1.60;;;17.90;99.90;;;;;;2585949;54;20851;31
2023/09/14 03:31:28;;;;;;;3.10;2.00;;;17.90;99.90;;;;;;2584869;54;20928;31
2023/09/14 03:34:25;;;;;;;4.50;1.73;;;17.90;99.90;;;;;;2585677;54;20091;31
2023/09/14 03:36:59;;;;;;;3.13;2.03;;;18.00;99.90;;;;;;2585620;54;20871;31
2023/09/14 03:39:38;;;;;;;3.40;2.60;;;18.00;99.90;;;;;;2585786;54;21449;31
2023/09/14 03:42:14;;;;;;;3.00;1.95;;;18.00;99.90;;;;;;2585835;54;20536;31
2023/09/14 03:44:52;;;;;;;3.88;2.40;;;18.00;99.90;;;;;;2584974;54;20860;31
2023/09/14 03:47:24;;;;;;;3.20;1.88;;;18.00;99.90;;;;;;2585656;54;21443;31
2023/09/14 03:50:03;;;;;;;2.90;1.70;;;18.00;99.90;;;;;;2584986;54;20489;31
2023/09/14 03:52:40;;;;;;;3.50;2.30;;;18.00;99.90;;;;;;2585558;54;21111;31
2023/09/14 03:55:16;;;;;;;3.47;2.42;;;18.00;99.90;;;;;;2585775;54;21004;31
2023/09/14 03:58:00;;;;;;;4.37;2.80;;;18.00;99.90;;;;;;2584983;54;20807;31
2023/09/14 04:00:38;;;;;;;4.40;3.15;;;18.10;99.90;;;;;;2585825;54;20912;31
2023/09/14 04:03:14;;;;;;;4.93;3.55;;;18.10;99.90;;;;;;2586000;54;20737;31
2023/09/14 04:05:53;;;;;;;4.65;3.40;;;18.10;99.90;;;;;;2586425;54;20034;31
2023/09/14 04:08:32;;;;;;;5.85;4.00;;;18.10;99.90;;;;;;2586308;54;20167;31
2023/09/14 04:11:06;;;;;;;5.60;3.90;;;18.10;99.90;;;;;;2586159;54;20027;31
2023/09/14 04:13:41;;;;;;;5.20;3.43;;;18.10;99.90;;;;;;2604586;46;20116;31
2023/09/14 04:16:28;;;;;;;5.15;3.67;;;18.10;99.90;;;;;;2586704;54;21320;31
2023/09/14 04:19:02;;;;;;;4.35;3.45;;;18.10;99.90;;;;;;2604259;46;20178;31
2023/09/14 04:21:41;;;;;;;6.23;3.63;;;18.10;99.90;;;;;;2604583;46;20113;31
2023/09/14 04:24:15;;;;;;;3.83;2.67;;;18.10;99.90;;;;;;2586082;54;21146;31
2023/09/14 04:26:51;;;;;;;6.65;3.20;;;18.10;99.90;;;;;;2586345;54;20109;31
2023/09/14 04:29:27;;;;;;;6.60;3.20;;;18.10;99.90;;;;;;2586408;54;20109;31
2023/09/14 04:32:03;;;;;;;5.17;2.90;;;18.00;99.90;;;;;;2586614;54;20797;31
2023/09/14 04:34:38;;;;;;;;;;;18.00;99.90;;;;;;2586488;54;20853;31
2023/09/14 04:37:21;;;;;;;4.40;2.60;;;18.00;99.90;;;;;;2585494;54;19934;31
2023/09/14 04:39:54;;;;;;;4.90;2.78;;;18.00;99.90;;;;;;2585626;54;20337;31
2023/09/14 04:42:29;;;;;;;7.30;3.53;;;18.00;99.90;;;;;;2604613;46;20073;31
2023/09/14 04:45:06;;;;;;;4.65;3.38;;;17.90;99.90;;;;;;2585820;54;20924;31
2023/09/14 04:47:44;;;;;;;4.18;2.72;;;17.90;99.90;;;;;;2586339;54;20027;31
2023/09/14 04:50:20;;;;;;;6.47;3.70;;;17.90;99.90;;;;;;2586264;54;20954;31
2023/09/14 04:52:57;;;;;;;4.68;3.25;;;17.90;99.90;;;;;;2586154;54;20046;31
2023/09/14 04:55:33;;;;;;;4.80;3.00;;;17.90;99.90;;;;;;2585543;54;20878;31
2023/09/14 04:58:16;;;;;;;5.03;3.00;;;17.90;99.90;;;;;;2586280;54;20785;31
2023/09/14 05:00:55;;;;;;;3.67;2.75;;;17.80;99.90;;;;;;2604453;46;20905;31
2023/09/14 05:03:33;;;;;;;3.95;3.00;;;17.80;99.90;;;;;;2586209;54;20028;31
2023/09/14 05:06:11;;;;;;;5.03;3.00;;;17.80;99.90;;;;;;2585537;54;20792;31
2023/09/14 05:08:52;;;;;;;3.40;2.60;;;17.80;99.90;;;;;;2585609;54;20026;31
2023/09/14 05:11:27;;;;;;;2.75;2.00;;;17.70;99.90;;;;;;2596008;46;19943;31
2023/09/14 05:14:06;;;;;;;3.90;2.60;;;17.70;99.90;;;;;;2585401;54;20810;31
2023/09/14 05:16:43;;;;;;;2.80;2.03;;;17.70;99.90;;;;;;2585349;54;20976;31
2023/09/14 05:19:20;;;;;;;4.20;2.85;;;17.60;99.90;;;;;;2585470;54;20027;31
2023/09/14 05:21:53;;;;;;;3.78;2.53;;;17.60;99.90;;;;;;2586248;54;20863;31
2023/09/14 05:24:33;;;;;;;3.50;2.10;;;17.50;99.90;;;;;;2604363;46;20048;31
2023/09/14 05:27:10;;;;;;;3.78;2.40;;;17.50;99.90;;;;;;2586217;54;19934;31
2023/09/14 05:29:48;;;;;;;4.53;2.22;;;17.50;99.90;;;;;;2586171;54;20022;31
2023/09/14 05:32:24;;;;;;;4.55;2.47;;;17.50;99.90;;;;;;2586263;54;20867;31
2023/09/14 05:34:57;;;;;;;3.78;2.35;;;17.40;99.90;;;;;;2586155;54;20117;31
2023/09/14 05:37:36;;;;;;;3.20;1.77;;;17.40;99.90;;;;;;2586132;54;20042;31
2023/09/14 05:40:19;;;;;;;3.10;1.50;;;17.40;99.90;;;;;;2585470;54;20061;31
2023/09/14 05:42:57;;;;;;;2.97;2.03;;;17.30;99.90;;;;;;2586274;54;21111;31
2023/09/14 05:45:42;;;;;;;3.87;1.93;;;17.30;99.90;;;;;;2586044;54;20022;31
2023/09/14 05:48:17;;;;;;;2.42;1.92;;;17.30;99.90;;;;;;2586234;54;20768;31
2023/09/14 05:50:52;;;;;;;;;;;17.30;99.90;;;;;;2604642;46;20928;31
2023/09/14 05:53:29;;;;;;;2.55;1.63;;;17.20;99.90;;;;;;2604536;46;20812;31
2023/09/14 05:56:09;;;;;;;1.92;1.38;;;17.20;99.90;;;;;;2604231;46;20157;31
2023/09/14 05:58:47;;;;;;;2.43;1.70;;;17.20;99.90;;;;;;2586147;54;20764;31
2023/09/14 06:01:25;;;;;;;3.50;1.60;;;17.20;99.90;;;;;;2683002;39;21636;31
2023/09/14 06:04:05;;;;;;;2.17;1.45;;;17.20;99.90;;;;;;2588411;46;20053;31
2023/09/14 06:06:40;;;;;;;2.20;1.17;;;17.20;99.90;;;;;;2584826;54;20089;31
2023/09/14 06:09:17;;;;;;;1.80;1.25;;;17.20;99.90;;;;;;2604647;46;20915;31
2023/09/14 06:11:53;;;;;;;2.53;1.65;;;17.10;99.90;;;;;;2586033;54;20855;31
2023/09/14 06:14:32;;;;;;;4.18;1.58;;;17.20;99.90;;;;;;2585082;54;20752;31
2023/09/14 06:17:06;;;;;;;2.10;1.40;;;17.10;99.90;;;;;;2585815;54;20141;31
2023/09/14 06:19:41;;;;;;;4.00;1.70;;;17.20;99.90;;;;;;2585214;54;20253;31
2023/09/14 06:22:18;;;;;;;5.67;1.43;;;17.20;99.90;;;;;;2604373;46;19938;31
2023/09/14 06:24:53;;;;;;;3.03;1.33;;;17.20;99.90;;;;;;2585653;54;20037;31
2023/09/14 06:27:29;;;;;;;2.00;1.10;;;17.20;99.90;;;;;;2585873;54;20795;31
2023/09/14 06:30:08;;;;;;;3.58;1.23;;;17.20;99.90;;;;;;2601328;46;20755;31
2023/09/14 06:32:49;;;;;;;2.13;1.42;;;17.20;99.90;;;;;;2586033;54;20859;31
2023/09/14 06:35:33;;;;;;;1.92;1.10;;;17.20;99.90;;;;;;2586087;54;20038;31
2023/09/14 06:38:10;;;;;;;1.90;1.20;;;17.30;99.90;;;;;;2585695;54;20053;31
2023/09/14 06:40:47;;;;;;;3.90;1.30;;;17.30;99.90;;;;;;2585984;54;20046;31
2023/09/14 06:43:26;;;;;;;2.70;1.17;;;17.20;99.90;;;;;;2594888;46;21606;31
2023/09/14 06:46:04;;;;;;;2.30;1.35;;;17.20;99.90;;;;;;2584941;54;21122;31
2023/09/14 06:48:42;;;;;;;3.72;1.30;;;17.20;99.90;;;;;;2604271;46;20842;31
2023/09/14 06:51:18;;;;;;;3.65;1.50;;;17.30;99.90;;;;;;2586066;54;20851;31
2023/09/14 06:53:54;;;;;;;2.50;1.30;;;17.30;99.90;;;;;;2598587;46;20555;31
2023/09/14 06:56:33;;;;;;;;;;;17.20;99.90;;;;;;2603837;46;20030;31
2023/09/14 06:59:14;;;;;;;1.75;1.10;;;17.20;99.90;;;;;;2585340;54;20695;31
2023/09/14 07:01:50;;;;;;;1.50;1.20;;;17.20;99.90;;;;;;2694043;39;20436;31
2023/09/14 07:04:23;;;;;;;4.13;1.50;;;17.30;99.90;;;;;;2683523;39;21572;31
2023/09/14 07:06:57;;;;;;;3.93;1.40;;;17.40;99.90;;;;;;2585397;54;21648;31
2023/09/14 07:09:33;;;;;;;3.37;1.40;;;17.30;99.90;;;;;;2585864;54;20728;31
2023/09/14 07:12:08;;;;;;;2.88;1.63;;;17.30;99.90;;;;;;2604355;46;20034;31
2023/09/14 07:14:48;;;;;;;2.63;0.90;;;17.40;99.90;;;;;;2586044;54;20748;31
2023/09/14 07:17:23;;;;;;;4.70;1.30;;;17.40;99.90;;;;;;2586896;46;20089;31
2023/09/14 07:19:58;;;;;;;3.30;1.30;;;17.30;99.90;;;;;;2585979;54;20254;31
2023/09/14 07:22:37;;;;;;;2.45;1.20;;;17.40;99.90;;;;;;2604584;46;20026;31
2023/09/14 07:25:23;;;;;;;4.75;1.83;;;17.40;99.90;;;;;;2584742;54;20033;31
2023/09/14 07:28:03;;;;;;;5.65;1.50;;;17.50;99.90;;;;;;2585895;54;20034;31
2023/09/14 07:30:45;;;;;;;3.33;1.60;;;17.60;99.90;;;;;;2585941;54;20045;31
2023/09/14 07:33:20;;;;;;;2.60;1.40;;;17.60;99.90;;;;;;2585678;54;20756;31
2023/09/14 07:35:54;;;;;;;2.93;1.40;;;17.60;99.90;;;;;;2605273;46;20030;31
2023/09/14 07:38:29;;;;;;;4.18;1.88;;;17.70;99.90;;;;;;2587508;54;20869;31
2023/09/14 07:41:06;;;;;;;4.18;1.83;;;17.80;99.90;;;;;;2586927;54;20934;31
2023/09/14 07:43:47;;;;;;;3.85;2.05;;;17.90;99.90;;;;;;2703889;38;21577;31
2023/09/14 07:46:26;;;;;;;5.15;1.95;;;17.90;99.90;;;;;;2587264;54;20982;31
2023/09/14 07:49:04;;;;;;;3.63;2.33;;;18.00;99.90;;;;;;2703806;39;20435;31
2023/09/14 07:51:41;;;;;;;4.10;2.20;;;18.00;99.90;;;;;;2586639;54;20878;31
2023/09/14 07:54:16;;;;;;;3.60;2.40;;;18.00;99.90;;;;;;2587802;54;20914;31
2023/09/14 07:56:52;;;;;;;5.30;2.60;;;18.20;99.90;;;;;;2586657;54;20990;31
2023/09/14 07:59:28;;;;;;;5.10;2.63;;;18.50;99.90;;;;;;2602119;46;20054;31
2023/09/14 08:02:11;;;;;;;4.05;2.22;;;18.70;99.90;;;;;;2586642;54;19943;31
2023/09/14 08:04:54;;;;;;;4.00;2.65;;;18.80;99.90;;;;;;2586495;54;20924;31
2023/09/14 08:07:40;;;;;;;4.22;2.40;;;18.80;99.90;;;;;;2586734;54;21300;31
2023/09/14 08:10:46;;;;;;;5.93;3.05;;;18.90;99.90;;;;;;2587634;54;20026;31
2023/09/14 08:17:49;;;;;;;5.15;2.20;;;19.20;99.90;;;;;;2587203;54;20873;31
2023/09/14 08:21:08;;;;;;;5.15;2.50;;;19.30;99.90;;;;;;2587415;54;20060;31
2023/09/14 08:24:25;;;;;;;6.63;1.87;;;19.60;99.90;;;;;;2587222;54;21480;31
2023/09/14 08:27:03;;;;;;;4.35;2.03;;;19.60;99.90;;;;;;2685340;39;21470;31
2023/09/14 08:29:41;;;;;;;4.10;2.00;;;20.00;99.90;;;;;;2586442;54;20049;31
2023/09/14 08:32:24;;;;;;;6.15;3.30;;;20.30;99.90;;;;;;2586445;54;20869;31
2023/09/14 08:35:01;;;;;;;4.35;2.35;;;20.50;99.90;;;;;;2685454;39;21438;31
2023/09/14 08:37:48;;;;;;;4.18;1.95;;;20.50;99.90;;;;;;2587324;54;20176;31
2023/09/14 08:40:23;;;;;;;4.50;2.10;;;20.50;99.90;;;;;;2587262;54;20705;31
2023/09/14 08:42:57;;;;;;;3.30;2.20;;;20.50;99.90;;;;;;2587375;54;20034;31
2023/09/14 08:45:35;;;;;;;3.37;2.30;;;20.50;99.90;;;;;;2587041;54;20953;31
2023/09/14 08:48:13;;;;;;;4.15;2.28;;;20.60;99.90;;;;;;2586223;54;20874;31
2023/09/14 08:50:59;;;;;;;4.60;1.92;;;20.80;99.90;;;;;;2586176;54;20039;31
2023/09/14 08:53:38;;;;;;;3.17;2.20;;;20.80;99.90;;;;;;2586318;54;20026;31
2023/09/14 08:56:15;;;;;;;4.68;1.80;;;20.80;99.90;;;;;;2586361;54;21255;31
2023/09/14 08:58:52;;;;;;;3.08;1.83;;;20.70;99.90;;;;;;2684260;39;20547;31
2023/09/14 09:01:34;;;;;;;4.15;2.30;;;20.60;99.90;;;;;;2604683;46;20885;31
2023/09/14 09:04:10;;;;;;;3.92;2.03;;;20.50;99.90;;;;;;2586198;54;20023;31
2023/09/14 09:06:46;;;;;;;4.93;1.80;;;20.40;99.90;;;;;;2684116;39;20558;31
2023/09/14 09:09:24;;;;;;;4.30;2.25;;;20.30;99.90;;;;;;2586150;54;20928;31
2023/09/14 09:12:11;;;;;;;5.47;2.33;;;20.20;99.90;;;;;;2604884;46;21661;31
2023/09/14 09:14:48;;;;;;;6.35;2.28;;;20.30;99.90;;;;;;2604840;46;20865;31
2023/09/14 09:17:24;;;;;;;5.00;2.45;;;20.30;99.90;;;;;;2586110;54;20036;31
2023/09/14 09:20:01;;;;;;;4.70;2.00;;;20.40;99.90;;;;;;2586086;54;20136;31
2023/09/14 09:22:41;;;;;;;4.03;2.00;;;20.30;99.90;;;;;;2586554;54;20945;31
2023/09/14 09:25:45;;;;;;;5.05;2.90;;;20.30;99.90;;;;;;2586241;54;20954;31
2023/09/14 09:28:35;;;;;;;4.15;2.83;;;20.30;99.90;;;;;;2586315;54;20026;31
2023/09/14 09:31:13;;;;;;;5.07;2.40;;;20.20;99.90;;;;;;2593576;46;20037;31
2023/09/14 09:33:51;;;;;;;7.40;2.65;;;20.10;99.90;;;;;;2585422;54;20907;31
2023/09/14 09:36:26;;;;;;;4.45;2.30;;;20.00;99.90;;;;;;2586241;54;20909;31
2023/09/14 09:39:11;;;;;;;3.20;2.10;;;20.00;99.90;;;;;;2585903;54;20142;31
2023/09/14 09:41:57;;;;;;;4.60;2.38;;;20.00;99.90;;;;;;2585781;54;20856;31
2023/09/14 09:44:32;;;;;;;3.90;2.22;;;20.10;99.90;;;;;;2586148;54;20889;31
2023/09/14 09:47:16;;;;;;;4.10;3.05;;;20.20;99.90;;;;;;2585760;54;20049;31
2023/09/14 09:49:59;;;;;;;5.63;2.17;;;20.50;99.90;;;;;;2604406;46;20030;31
2023/09/14 09:52:36;;;;;;;3.87;1.80;;;21.00;99.90;;;;;;2586304;54;20093;31
2023/09/14 09:55:20;;;;;;;4.03;1.73;;;21.30;99.90;;;;;;2586347;54;20265;31
2023/09/14 09:57:59;;;;;;;3.28;1.73;;;21.50;99.90;;;;;;2586250;54;20751;31
2023/09/14 10:00:39;;;;;;;6.40;1.53;;;21.60;99.90;;;;;;2590463;46;20896;31
2023/09/14 10:03:15;;;;;;;4.75;1.70;;;21.60;99.90;;;;;;2586130;54;20027;31
2023/09/14 10:05:49;;;;;;;3.83;1.87;;;21.60;99.90;;;;;;2586248;54;20026;31
2023/09/14 10:08:30;;;;;;;4.32;1.88;;;21.60;99.90;;;;;;2586347;54;19934;31
2023/09/14 10:11:05;;;;;;;2.87;1.67;;;21.50;99.90;;;;;;2585201;54;20923;31
2023/09/14 10:13:44;;;;;;;;;;;21.40;99.90;;;;;;2601995;46;20861;31
2023/09/14 10:16:24;;;;;;;6.70;2.10;;;21.20;99.90;;;;;;2586742;46;19957;31
2023/09/14 10:19:02;;;;;;;4.50;2.50;;;21.00;99.90;;;;;;2604730;46;20038;31
2023/09/14 10:21:36;;;;;;;6.20;2.00;;;20.80;99.90;;;;;;2585991;54;20149;31
2023/09/14 10:24:12;;;;;;;3.07;2.00;;;20.60;99.90;;;;;;2586079;54;20238;31
2023/09/14 10:26:49;;;;;;;5.20;1.90;;;20.50;99.90;;;;;;2604735;46;20044;31
2023/09/14 10:29:31;;;;;;;4.43;1.80;;;20.50;99.90;;;;;;2604130;46;20875;31
2023/09/14 10:32:09;;;;;;;2.65;1.40;;;20.40;99.90;;;;;;2586156;54;20952;31
2023/09/14 10:37:37;;;;;;;3.90;2.00;;;20.20;99.90;;;;;;2604252;46;20992;31
2023/09/14 10:40:14;;;;;;;2.47;1.40;;;20.10;99.90;;;;;;2585974;54;20865;31
2023/09/14 10:42:52;;;;;;;3.42;1.63;;;20.10;99.90;;;;;;2585866;54;20506;31
2023/09/14 10:45:46;;;;;;;6.75;1.90;;;20.00;99.90;;;;;;2597660;46;20950;31
2023/09/14 10:48:28;;;;;;;2.65;1.55;;;19.90;99.90;;;;;;2585729;54;20837;31
2023/09/14 10:51:09;;;;;;;3.53;1.80;;;19.90;99.90;;;;;;2585562;54;20137;31
2023/09/14 10:53:44;;;;;;;4.40;1.87;;;19.90;99.90;;;;;;2585982;54;20026;31
2023/09/14 10:56:30;;;;;;;3.00;1.90;;;19.90;99.90;;;;;;2585438;54;20048;31
2023/09/14 10:59:13;;;;;;;4.60;1.60;;;19.90;99.90;;;;;;2603940;46;20320;31
2023/09/14 11:01:53;;;;;;;3.47;2.20;;;20.00;99.90;;;;;;2604482;46;21070;31
2023/09/14 11:04:28;;;;;;;4.20;2.03;;;20.00;99.90;;;;;;2683689;39;21395;31
2023/09/14 11:07:06;;;;;;;;;;;20.00;99.90;;;;;;2585372;54;20031;31
2023/09/14 11:10:02;;;;;;;5.30;2.10;;;20.10;99.90;;;;;;2585444;54;20833;31
2023/09/14 11:12:39;;;;;;;2.25;1.80;;;20.10;99.90;;;;;;2586268;54;20935;31
2023/09/14 11:15:20;;;;;;;3.65;2.35;;;20.20;99.90;;;;;;2597590;46;20923;31
2023/09/14 11:18:00;;;;;;;5.65;2.50;;;20.30;99.90;;;;;;2586224;54;20026;31
2023/09/14 11:20:44;;;;;;;3.30;2.00;;;20.30;99.90;;;;;;2585806;54;20026;31
2023/09/14 11:23:19;;;;;;;3.05;2.10;;;20.30;99.90;;;;;;2585945;54;20876;31
2023/09/14 11:25:59;;;;;;;3.35;2.00;;;20.40;99.90;;;;;;2585912;54;20038;31
2023/09/14 11:28:51;;;;;;;4.15;2.95;;;20.50;99.90;;;;;;2586009;54;20034;31
2023/09/14 11:31:32;;;;;;;2.65;1.98;;;20.50;99.90;;;;;;2585597;54;20901;31
2023/09/14 11:34:31;;;;;;;3.67;2.30;;;20.40;99.90;;;;;;2585715;54;20053;31
2023/09/14 11:37:14;;;;;;;3.88;1.98;;;20.40;99.90;;;;;;2585758;54;20137;31
2023/09/14 11:39:58;;;;;;;3.70;2.05;;;20.40;99.90;;;;;;2585707;54;20030;31
2023/09/14 11:43:08;;;;;;;5.80;2.05;;;20.40;99.90;;;;;;2585739;54;20074;31
2023/09/14 11:45:51;;;;;;;5.07;1.90;;;20.40;99.90;;;;;;2585460;54;20109;31
2023/09/14 11:48:32;;;;;;;4.32;2.65;;;20.40;99.90;;;;;;2586038;54;20030;31
2023/09/14 11:51:24;;;;;;;4.72;2.13;;;20.50;99.90;;;;;;2585619;54;20895;31
2023/09/14 11:54:03;;;;;;;4.90;1.70;;;20.60;99.90;;;;;;2585573;54;20030;31
2023/09/14 11:56:39;;;;;;;4.00;2.55;;;20.90;99.90;;;;;;2700631;39;20834;31
2023/09/14 11:59:30;;;;;;;3.90;1.60;;;20.90;99.90;;;;;;2682129;39;21525;31
2023/09/14 12:02:11;;;;;;;4.30;2.45;;;21.00;99.90;;;;;;2585109;47;21141;31
2023/09/14 12:04:50;;;;;;;6.20;2.40;;;21.00;99.90;;;;;;2603979;47;20955;31
2023/09/14 12:07:31;;;;;;;3.97;1.80;;;21.00;99.90;;;;;;2585873;54;20077;31
2023/09/14 12:10:23;;;;;;;4.63;2.03;;;21.00;99.90;;;;;;2585626;54;19935;31
2023/09/14 12:13:14;;;;;;;2.70;1.70;;;21.00;99.90;;;;;;2585649;54;20030;31
2023/09/14 12:16:04;;;;;;;5.47;2.25;;;21.00;99.90;;;;;;2585324;54;20891;31
2023/09/14 12:18:43;;;;;;;4.05;1.92;;;20.90;99.90;;;;;;2585477;54;20871;31
2023/09/14 12:21:17;;;;;;;3.03;1.93;;;20.90;99.90;;;;;;2591097;47;20872;31
2023/09/14 12:24:08;;;;;;;3.85;1.83;;;20.90;99.90;;;;;;2604979;46;20034;31
2023/09/14 12:26:59;;;;;;;4.10;1.70;;;20.90;99.90;;;;;;2586508;54;20947;31
2023/09/14 12:29:37;;;;;;;3.03;2.05;;;21.00;99.90;;;;;;2688360;39;20795;31
2023/09/14 12:32:13;;;;;;;;;;;21.00;99.90;;;;;;2586712;54;20833;31
2023/09/14 12:34:54;;;;;;;3.30;2.00;;;21.00;99.90;;;;;;2586201;54;20013;31
2023/09/14 12:37:40;;;;;;;3.85;2.20;;;21.00;99.90;;;;;;2586062;54;20059;31
2023/09/14 12:40:29;;;;;;;3.78;1.95;;;21.00;99.90;;;;;;2585559;54;21627;31
2023/09/14 12:43:09;;;;;;;3.83;2.10;;;21.00;99.90;;;;;;2586592;54;19935;31
2023/09/14 12:45:47;;;;;;;1.98;1.30;;;21.10;99.90;;;;;;2586073;54;20068;31
2023/09/14 12:48:27;;;;;;;3.70;1.77;;;21.20;99.90;;;;;;2586047;54;20863;31
2023/09/14 12:51:16;;;;;;;2.47;1.53;;;21.20;99.90;;;;;;2586303;54;20054;31
2023/09/14 12:53:52;;;;;;;3.65;2.13;;;21.20;99.90;;;;;;2586149;54;21099;31
2023/09/14 12:56:33;;;;;;;2.30;1.65;;;21.10;99.90;;;;;;2604913;46;20027;31
2023/09/14 12:59:09;;;;;;;4.57;1.80;;;21.10;99.90;;;;;;2603772;46;20823;31
2023/09/14 13:01:49;;;;;;;3.77;2.00;;;21.10;99.90;;;;;;2585286;54;20149;31
2023/09/14 13:04:27;;;;;;;3.30;2.00;;;21.00;99.90;;;;;;2597825;46;20042;31
2023/09/14 13:07:04;;;;;;;3.70;1.97;;;20.90;99.90;;;;;;2586171;54;20254;31
2023/09/14 13:09:48;;;;;;;3.72;1.50;;;20.90;99.90;;;;;;2604801;46;20243;31
2023/09/14 13:12:32;;;;;;;2.50;1.80;;;20.90;99.90;;;;;;2586192;54;20823;31
2023/09/14 13:15:13;;;;;;;4.90;1.88;;;21.00;99.90;;;;;;2586773;54;20872;31
2023/09/14 13:17:46;;;;;;;7.20;2.65;;;21.00;99.90;;;;;;2604905;46;20935;31
2023/09/14 13:20:22;;;;;;;2.95;1.80;;;21.00;99.90;;;;;;2586080;54;20901;31
2023/09/14 13:23:00;;;;;;;;;;;21.00;99.90;;;;;;2605036;46;20030;31
2023/09/14 13:25:38;;;;;;;4.47;1.40;;;21.00;99.90;;;;;;2586110;54;21487;31
2023/09/14 13:28:12;;;;;;;2.17;1.38;;;21.00;99.90;;;;;;2586131;54;20030;31
2023/09/14 13:30:52;;;;;;;;;;;21.00;99.90;;;;;;2586683;54;20841;31
2023/09/14 13:33:55;;;;;;;3.50;1.93;;;21.00;99.90;;;;;;2585771;54;19956;31
2023/09/14 13:36:32;;;;;;;3.33;1.92;;;20.90;99.90;;;;;;2595751;46;20735;31
2023/09/14 13:39:11;;;;;;;2.97;1.67;;;20.90;99.90;;;;;;2604533;46;20866;31
2023/09/14 13:41:52;;;;;;;4.20;2.13;;;20.90;99.90;;;;;;2586278;54;20019;31
2023/09/14 13:44:35;;;;;;;3.28;1.85;;;20.80;99.90;;;;;;2586142;54;20053;31
2023/09/14 13:47:12;;;;;;;3.75;2.53;;;20.70;99.90;;;;;;2586105;54;20056;31
2023/09/14 13:49:52;;;;;;;4.13;1.85;;;20.80;99.90;;;;;;2586217;54;20026;31
2023/09/14 13:52:29;;;;;;;2.83;1.80;;;20.80;99.90;;;;;;2586276;54;20732;31
2023/09/14 13:55:09;;;;;;;1.88;1.50;;;20.80;99.90;;;;;;2585341;54;20025;31
2023/09/14 13:57:45;;;;;;;2.08;1.60;;;20.70;99.90;;;;;;2585178;54;20093;31
2023/09/14 14:00:27;;;;;;;3.05;1.92;;;20.70;99.90;;;;;;2586068;54;20887;31
2023/09/14 14:03:20;;;;;;;2.33;1.58;;;20.70;99.90;;;;;;2586326;54;20833;31
2023/09/14 14:06:04;;;;;;;3.15;1.95;;;20.60;99.90;;;;;;2684435;39;21472;31
2023/09/14 14:08:41;;;;;;;2.80;1.87;;;20.60;99.90;;;;;;2586170;54;20027;31
2023/09/14 14:11:19;;;;;;;2.85;2.08;;;20.50;99.90;;;;;;2586210;54;20439;31